Paragould, AR

9:07 PM CST on December 25, 2014 (GMT -0600)
MesoWest BETHEL AR US UPR | Change Station
CLOSE
Current Station
Personal Weather Station
Location: Brookland, AR
Elevation: 288 ft
Nearby Weather Stations

Elev 288 ft 35.97 °N, 90.54 °W | Updated 1 hour ago

Clear
Clear
43.0 °F
Feels Like 43.0 °F
N
-
Wind Variable Wind from North

Today
High -- | Low -- °F
--% Chance of Precip.
Yesterday
High -- | Low -- °F
Precip. -- in
7:10 AM 4:53 PM
Waxing Crescent, 21% visible
Pressure 30.11 in
Visibility 10.0 miles
Clouds Clear
Dew Point Not available.
Humidity Not available.
Rainfall -999.00 in
Snow Depth Not available.
UV 0 out of 12
Pollen .10 out of 12
Air Quality Not available.
Flu Activity Not available.
METAR KJBR 260253Z AUTO 19009KT 10SM CLR 06/03 A3010 RMK AO2 SLP194 T00560028 51004

More Conditions Fewer Conditions

Pressure 30.11 in
Visibility 10.0 miles
Clouds Clear
Dew Point Not available.
Humidity Not available.
Rainfall -999.00 in
Snow Depth Not available.
UV 0 out of 12
Pollen .10 out of 12
Air Quality Not available.
Flu Activity Not available.
METAR KJBR 260253Z AUTO 19009KT 10SM CLR 06/03 A3010 RMK AO2 SLP194 T00560028 51004

More Conditions Fewer Conditions

10-Day Weather Forecast

Almanac

Astronomy

Dec. 25, 2014 Rise Set
Actual Time
Civil Twilight
Nautical Twilight
Astronomical Twilight
Moon
Length of Visible Light
Length of Day
Tomorrow will be .
, % of the Moon is Illuminated

Today's Extremes

State Highs State Lows

Community

WunderPhotos

Upload Photos

1,780,525 photos uploaded!

WunderBlogs® & News

Nearby

Air Quality

  Air Quality AQ Index Pollutant
Not available.

Snow Depth

Station Depth Elevation

Earthquake Activity

City Distance Mag. Time & Date
Minimum magnitude displayed is 2.5.

Coastal Water Temperatures

Place Temperature

Nearby Weather Stations